Latest Weather Observations for Pallamana

IDS60901

Issued at 3:31 am CDT Sunday 14 February 2016 (issued every 10 minutes, with the page automatically refreshed every 10 minutes)

About weather observations | Map of Adelaide area stations | Latest observations for Adelaide area | Other Formats
Station Details ID: 024584 Name: PALLAMANA AERODROME Lat: -35.06 Lon: 139.23 Height: 45.0 m
Data from the previous 72 hours. | See also: Recent months at Pallamana
Date/Time
CDT
Tmp

°C
App
Tmp
°C
Dew
Point
°C
Rel
Hum
%
Delta-T

°C
Wind Press
QNH
hPa
Press
MSL
hPa
Rain
since
9 am
mm
Dir
 
Spd
km/h
Gust
km/h
Spd
kts
Gust
kts
14/03:30am 14.9 13.2 12.3 84 1.4 W 13 15 7 8 1013.5 1013.3 0.0
14/03:00am 14.8 13.5 12.6 87 1.2 WSW 11 13 6 7 1013.5 1013.3 0.0
14/02:30am 14.7 13.1 12.7 88 1.1 WSW 13 15 7 8 1013.6 1013.4 0.0
14/02:00am 15.0 13.0 12.8 87 1.2 WSW 15 17 8 9 1013.6 1013.4 0.0
14/01:30am 14.9 13.7 12.9 88 1.1 SW 11 13 6 7 1013.9 1013.7 0.0
14/01:00am 15.4 14.3 13.1 86 1.3 SW 11 13 6 7 1014.2 1014.0 0.0
14/12:33am 16.0 14.6 13.3 84 1.5 SW 13 13 7 7 1014.2 1014.0 0.0
14/12:30am 16.0 14.6 13.3 84 1.5 SW 13 13 7 7 1014.3 1014.1 0.0
14/12:23am 16.1 14.6 13.2 83 1.6 SW 13 15 7 8 1014.2 1014.0 0.0
14/12:00am 16.8 15.5 13.6 81 1.8 SW 13 17 7 9 1014.3 1014.1 0.0
 
Date/Time
CDT
Tmp

°C
App
Tmp
°C
Dew
Point
°C
Rel
Hum
%
Delta-T

°C
Wind Press
QNH
hPa
Press
MSL
hPa
Rain
since
9 am
mm
Dir
 
Spd
km/h
Gust
km/h
Spd
kts
Gust
kts
13/11:30pm 17.4 15.7 13.5 78 2.2 SSW 15 17 8 9 1014.4 1014.2 0.0
13/11:00pm 18.4 16.0 13.7 74 2.7 SSW 19 24 10 13 1014.5 1014.3 0.0
13/10:30pm 19.2 16.9 14.6 74 2.7 SSW 20 28 11 15 1014.5 1014.3 0.0
13/10:00pm 19.2 16.9 14.2 73 2.9 SSW 19 28 10 15 1014.3 1014.1 0.0
13/09:30pm 19.6 17.1 14.2 71 3.1 SSW 20 30 11 16 1014.2 1014.0 0.0
13/09:00pm 19.9 16.2 14.0 69 3.4 SSW 26 41 14 22 1013.8 1013.6 0.0
13/08:30pm 20.2 16.0 13.4 65 3.9 SSW 28 39 15 21 1013.1 1012.9 0.0
13/08:00pm 20.7 16.9 13.6 64 4.1 SSW 26 35 14 19 1012.8 1012.6 0.0
13/07:30pm 20.8 17.5 15.0 69 3.4 SSW 26 39 14 21 1012.2 1012.0 0.0
13/07:00pm 21.4 18.2 16.3 72 3.1 SSW 28 37 15 20 1012.1 1011.9 0.0
13/06:30pm 22.2 19.0 16.4 69 3.5 SSW 28 39 15 21 1011.9 1011.7 0.0
13/06:26pm 21.9 18.4 16.5 71 3.3 SSW 30 39 16 21 1011.9 1011.7 0.0
13/06:07pm 22.5 18.4 16.4 68 3.7 SSW 33 41 18 22 1011.8 1011.6 0.0
13/06:00pm 22.8 19.2 16.2 66 4.0 SSW 30 41 16 22 1011.7 1011.5 0.0
13/05:30pm 23.4 20.1 15.0 59 5.0 S 26 41 14 22 1011.8 1011.6 0.0
13/05:00pm 23.2 19.3 15.6 62 4.6 SSW 30 41 16 22 1011.8 1011.6 0.0
13/04:30pm 23.9 19.6 15.8 60 4.9 SSW 33 46 18 25 1011.5 1011.3 0.0
13/04:00pm 25.7 21.2 15.3 52 6.3 SSW 33 44 18 24 1010.9 1010.8 0.0
13/03:30pm 27.7 23.1 15.2 46 7.6 SSW 33 44 18 24 1010.8 1010.7 0.0
13/03:00pm 29.1 25.3 14.6 41 8.8 S 28 39 15 21 1010.6 1010.5 0.0
13/02:30pm 29.4 26.5 15.0 41 8.8 SE 24 33 13 18 1010.9 1010.8 0.0
13/02:00pm 28.0 25.8 15.0 45 7.9 S 20 32 11 17 1011.3 1011.1 0.0
13/01:30pm 25.7 23.8 15.7 54 6.1 SSE 20 30 11 16 1011.5 1011.3 0.0
13/01:00pm 24.2 20.9 16.0 60 5.0 SSE 28 37 15 20 1011.7 1011.5 0.0
13/12:30pm 27.7 24.6 15.6 47 7.4 SSE 26 35 14 19 1011.7 1011.5 0.0
13/12:00pm 28.0 25.0 7.9 28 10.9 SSW 13 20 7 11 1011.7 1011.5 0.0
13/11:30am 27.2 25.5 10.0 34 9.6 SE 9 15 5 8 1012.0 1011.8 0.0
13/11:00am 26.1 23.8 10.4 37 8.8 SE 13 22 7 12 1012.1 1011.9 0.0
13/10:30am 24.8 23.7 11.8 44 7.4 SE 9 15 5 8 1012.3 1012.1 0.0
13/10:00am 24.0 22.7 11.4 45 7.1 SSE 9 15 5 8 1012.3 1012.1 0.0
13/09:30am 23.3 22.1 10.4 44 7.1 SE 7 11 4 6 1012.2 1012.0 0.0
13/09:00am 22.4 20.7 9.9 45 6.8 S 9 13 5 7 1012.4 1012.2 0.0
13/08:30am 19.8 19.9 13.9 69 3.4 SE 6 9 3 5 1012.5 1012.3 0.0
13/08:00am 16.4 17.3 13.0 80 1.9 CALM 0 0 0 0 1012.3 1012.1 0.0
13/07:30am 13.6 14.1 11.7 88 1.0 CALM 0 0 0 0 1012.2 1012.0 0.0
13/07:00am 12.7 12.4 11.4 92 0.7 WSW 4 7 2 4 1011.8 1011.6 0.0
13/06:31am 11.4 11.4 9.8 90 0.8 CALM 0 0 0 0 1011.5 1011.3 0.0
13/06:30am 11.4 11.4 9.8 90 0.8 CALM 0 0 0 0 1011.5 1011.3 0.0
13/06:12am 12.0 12.2 10.7 92 0.7 CALM 0 0 0 0 1011.3 1011.1 0.0
13/06:00am 12.5 12.8 11.0 90 0.8 CALM 0 0 0 0 1010.9 1010.8 0.0
13/05:30am 12.4 12.8 11.1 92 0.7 CALM 0 0 0 0 1010.6 1010.5 0.0
13/05:00am 12.0 11.5 10.7 92 0.7 SSE 4 11 2 6 1010.3 1010.2 0.0
13/04:30am 13.0 11.4 11.7 92 0.7 NNW 11 15 6 8 1010.2 1010.1 0.0
13/04:00am 11.9 12.1 10.7 92 0.6 CALM 0 0 0 0 1010.5 1010.4 0.0
13/03:30am 12.3 10.9 11.0 92 0.7 S 9 13 5 7 1010.8 1010.7 0.0
13/03:00am 12.0 10.6 10.9 93 0.6 NNW 9 11 5 6 1010.4 1010.3 0.0
13/02:30am 12.8 11.6 11.7 93 0.6 NNW 9 9 5 5 1010.7 1010.6 0.0
13/02:00am 12.8 12.1 11.3 91 0.8 N 6 7 3 4 1011.4 1011.2 0.0
13/01:30am 13.0 12.3 11.3 89 0.9 SW 6 9 3 5 1011.9 1011.7 0.0
13/01:00am 13.9 13.3 12.2 89 0.9 NW 7 9 4 5 1011.8 1011.6 0.0
13/12:30am 14.1 13.7 12.3 89 1.0 WSW 6 11 3 6 1012.0 1011.8 0.0
13/12:00am 14.6 14.0 12.2 85 1.3 NW 7 7 4 4 1011.8 1011.6 0.0
 
Date/Time
CDT
Tmp

°C
App
Tmp
°C
Dew
Point
°C
Rel
Hum
%
Delta-T

°C
Wind Press
QNH
hPa
Press
MSL
hPa
Rain
since
9 am
mm
Dir
 
Spd
km/h
Gust
km/h
Spd
kts
Gust
kts
12/11:30pm 15.5 14.8 13.2 86 1.3 NNW 9 11 5 6 1012.0 1011.8 0.0
12/11:00pm 15.0 13.7 12.6 85 1.3 NNW 11 13 6 7 1012.2 1012.0 0.0
12/10:30pm 16.0 15.6 12.9 82 1.7 N 7 7 4 4 1012.7 1012.5 0.0
12/10:00pm 17.9 18.1 14.2 79 2.1 SSW 6 7 3 4 1012.9 1012.7 0.0
12/09:30pm 18.2 17.7 13.8 75 2.5 SSW 9 11 5 6 1013.1 1012.9 0.0
12/09:00pm 19.6 18.1 14.3 71 3.1 SSW 15 22 8 12 1013.1 1012.9 0.0
12/08:30pm 20.8 18.3 14.1 65 3.9 SSW 20 32 11 17 1013.0 1012.8 0.0
12/08:00pm 22.5 19.7 13.3 56 5.3 SSW 20 32 11 17 1012.6 1012.4 0.0
12/07:30pm 24.7 20.9 14.6 53 6.0 SSW 28 32 15 17 1011.9 1011.7 0.0
12/07:00pm 27.4 23.5 13.4 42 8.3 SSW 26 32 14 17 1011.3 1011.1 0.0
12/06:30pm 29.9 26.6 12.9 35 10.1 S 22 28 12 15 1010.8 1010.7 0.0
12/06:00pm 31.2 27.8 13.6 34 10.6 SSW 24 32 13 17 1010.8 1010.7 0.0
12/05:30pm 31.8 28.2 13.1 32 11.2 S 24 32 13 17 1010.7 1010.6 0.0
12/05:00pm 33.6 29.7 12.1 27 12.8 S 24 35 13 19 1010.5 1010.4 0.0
12/04:30pm 33.8 30.9 10.9 24 13.4 S 17 28 9 15 1010.8 1010.7 0.0
12/04:00pm 34.3 30.0 10.7 23 13.8 S 24 32 13 17 1010.8 1010.7 0.0
12/03:30pm 34.4 30.3 11.4 24 13.6 SSW 24 35 13 19 1010.9 1010.8 0.0
12/03:00pm 34.8 31.0 9.9 22 14.4 SW 20 41 11 22 1011.3 1011.1 0.0
12/02:30pm 33.9 32.0 10.5 24 13.6 WNW 11 20 6 11 1011.8 1011.6 0.0
12/02:00pm 32.3 31.0 9.9 25 12.8 S 7 13 4 7 1012.4 1012.2 0.0
12/01:30pm 31.5 29.5 10.2 27 12.2 ESE 11 17 6 9 1012.9 1012.7 0.0
12/01:00pm 30.3 27.6 10.3 29 11.4 ESE 15 20 8 11 1013.4 1013.2 0.0
12/12:30pm 28.8 27.5 11.4 34 10.0 NNW 9 15 5 8 1014.0 1013.8 0.0
12/12:00pm 27.6 26.5 11.8 37 9.1 NE 9 15 5 8 1014.6 1014.4 0.0
12/11:46am 27.5 26.2 11.4 36 9.2 ENE 9 13 5 7 1014.7 1014.5 0.0
12/11:30am 26.8 25.8 12.3 40 8.4 E 9 15 5 8 1014.9 1014.7 0.0
12/11:27am 26.7 26.0 12.1 40 8.4 SE 7 15 4 8 1014.9 1014.7 0.0
12/11:00am 24.8 24.6 13.1 48 6.8 E 6 13 3 7 1015.3 1015.1 0.0
12/10:54am 25.0 24.7 13.4 48 6.8 SE 7 11 4 6 1015.3 1015.1 0.0
12/10:35am 23.7 23.4 13.4 52 6.0 ENE 7 9 4 5 1015.5 1015.3 0.0
12/10:30am 23.6 23.6 13.7 53 5.8 S 6 9 3 5 1015.5 1015.3 0.0
12/10:00am 21.9 21.8 13.8 60 4.7 SE 7 13 4 7 1015.8 1015.6 0.0
12/09:30am 20.5 20.4 13.9 66 3.8 SSE 7 11 4 6 1016.3 1016.1 0.0
12/09:00am 19.2 19.0 14.6 74 2.7 SSW 9 13 5 7 1016.5 1016.3 0.0
12/08:34am 18.3 17.0 14.9 80 2.0 SW 15 17 8 9 1016.5 1016.3 0.0
12/08:30am 18.2 16.9 14.9 81 1.9 SW 15 17 8 9 1016.5 1016.3 0.0
12/08:16am 17.4 15.7 14.8 85 1.5 WSW 17 19 9 10 1016.3 1016.1 0.0
12/08:00am 16.8 15.2 15.1 90 1.0 WSW 17 22 9 12 1016.3 1016.1 0.0
12/07:30am 15.6 13.8 14.4 93 0.7 WSW 17 20 9 11 1016.2 1016.0 0.0
12/07:00am 14.9 12.9 13.8 93 0.6 WSW 17 19 9 10 1016.0 1015.8 0.0
12/06:30am 15.0 13.0 13.9 93 0.6 W 17 20 9 11 1015.9 1015.7 0.0
12/06:00am 14.6 12.5 13.7 94 0.5 WSW 17 20 9 11 1015.6 1015.4 0.0
12/05:30am 14.7 12.7 13.8 94 0.5 WSW 17 20 9 11 1015.4 1015.2 0.0
12/05:14am 14.8 12.7 13.7 93 0.6 WSW 17 20 9 11 1015.4 1015.2 0.0
12/05:00am 14.8 13.1 13.7 93 0.6 WSW 15 17 8 9 1015.4 1015.2 0.0
12/04:54am 14.8 12.7 13.7 93 0.6 WSW 17 20 9 11 1015.4 1015.2 0.0
12/04:30am 14.9 12.5 13.8 93 0.6 WSW 19 20 10 11 1015.3 1015.1 0.0
12/04:27am 15.0 12.6 13.8 92 0.7 WSW 19 20 10 11 1015.3 1015.1 0.0
12/04:08am 15.0 12.6 13.8 92 0.7 WSW 19 22 10 12 1015.3 1015.1 0.0
12/04:00am 15.0 12.6 13.8 92 0.7 WSW 19 22 10 12 1015.2 1015.0 0.0
12/03:39am 15.0 12.6 13.8 92 0.7 WSW 19 22 10 12 1015.1 1014.9 0.0
12/03:30am 15.1 12.5 13.9 92 0.7 WSW 20 24 11 13 1015.2 1015.0 0.0
12/03:20am 15.1 12.7 13.9 92 0.7 WSW 19 22 10 12 1015.3 1015.1 0.0
12/03:15am 15.1 12.7 13.9 92 0.7 WSW 19 22 10 12 1015.3 1015.1 0.0
12/03:00am 15.3 12.9 13.9 91 0.8 WSW 19 20 10 11 1015.4 1015.2 0.0
12/02:56am 15.3 12.9 13.9 91 0.8 WSW 19 20 10 11 1015.4 1015.2 0.0
12/02:30am 15.4 13.4 14.0 91 0.8 WSW 17 20 9 11 1015.7 1015.5 0.0
12/02:00am 15.7 13.4 14.1 90 0.9 WSW 19 24 10 13 1015.8 1015.6 0.0
12/01:30am 15.9 13.5 14.3 90 0.9 WSW 20 24 11 13 1016.0 1015.8 0.0
12/01:00am 15.9 13.6 14.1 89 1.0 WSW 19 22 10 12 1016.5 1016.3 0.0
12/12:30am 16.1 13.9 14.3 89 1.0 WSW 19 26 10 14 1016.7 1016.5 0.0
12/12:00am 16.3 13.9 14.4 88 1.1 WSW 20 24 11 13 1016.9 1016.7 0.0
 
Date/Time
CDT
Tmp

°C
App
Tmp
°C
Dew
Point
°C
Rel
Hum
%
Delta-T

°C
Wind Press
QNH
hPa
Press
MSL
hPa
Rain
since
9 am
mm
Dir
 
Spd
km/h
Gust
km/h
Spd
kts
Gust
kts
11/11:30pm 16.4 14.0 14.3 87 1.2 WSW 20 26 11 14 1017.1 1016.9 0.0
11/11:00pm 16.8 13.9 14.0 83 1.6 SW 22 28 12 15 1017.3 1017.1 0.0
11/10:30pm 17.1 14.2 13.9 81 1.8 SW 22 28 12 15 1017.4 1017.2 0.0
11/10:00pm 17.4 14.4 13.7 79 2.1 SW 22 28 12 15 1017.2 1017.0 0.0
11/09:30pm 17.6 15.0 13.7 78 2.2 SW 20 24 11 13 1017.1 1016.9 0.0
11/09:00pm 18.2 15.6 13.8 75 2.5 SSW 20 26 11 14 1016.8 1016.6 0.0
11/08:30pm 18.9 15.8 13.4 70 3.1 SSW 22 30 12 16 1016.5 1016.3 0.0
11/08:00pm 19.9 15.7 13.6 67 3.6 SSW 28 39 15 21 1016.4 1016.2 0.0
11/07:30pm 21.0 16.9 13.9 64 4.1 SSW 28 37 15 20 1016.1 1015.9 0.0
11/07:00pm 21.6 16.5 13.0 58 4.9 SSW 32 39 17 21 1015.6 1015.4 0.0
11/06:30pm 22.9 18.2 13.2 54 5.6 SSW 30 41 16 22 1015.3 1015.1 0.0
11/06:00pm 23.7 18.8 12.5 49 6.4 SSW 30 39 16 21 1015.1 1014.9 0.0
11/05:30pm 24.0 19.8 12.5 48 6.6 SSW 26 33 14 18 1014.7 1014.5 0.0
11/05:00pm 25.2 20.2 12.1 44 7.5 SSW 30 37 16 20 1014.6 1014.4 0.0
11/04:30pm 26.7 21.9 11.7 39 8.6 SSW 28 39 15 21 1014.6 1014.4 0.0
11/04:00pm 27.6 22.6 11.1 35 9.4 SSW 28 37 15 20 1014.5 1014.3 0.0
11/03:30pm 28.2 23.4 10.3 32 10.1 SSW 26 35 14 19 1014.8 1014.6 0.0
11/03:00pm 28.6 24.4 8.3 28 11.1 SSW 20 28 11 15 1014.9 1014.7 0.0
11/02:30pm 28.2 23.5 7.9 28 11.0 SSE 22 30 12 16 1015.0 1014.8 0.0
11/02:00pm 27.9 22.8 5.9 24 11.5 SSE 22 30 12 16 1015.1 1014.9 0.0
11/01:30pm 27.3 22.5 5.4 24 11.3 S 20 30 11 16 1015.6 1015.4 0.0
11/01:00pm 25.9 21.5 7.4 30 9.8 S 20 32 11 17 1015.8 1015.6 0.0
11/12:30pm 25.7 21.9 9.7 36 8.8 SSW 20 37 11 20 1016.2 1016.0 0.0
11/12:00pm 25.1 22.1 10.6 40 8.1 S 17 28 9 15 1016.2 1016.0 0.0
11/11:30am 24.0 20.6 10.7 43 7.4 SSW 19 32 10 17 1016.5 1016.3 0.0
11/11:00am 23.1 20.0 11.5 48 6.5 SSW 19 28 10 15 1016.9 1016.7 0.0
11/10:30am 21.8 18.4 12.4 55 5.3 SW 22 33 12 18 1017.3 1017.1 0.0
11/10:00am 21.3 18.7 13.1 59 4.7 SSW 19 28 10 15 1017.6 1017.4 0.0
11/09:30am 20.2 17.5 13.4 65 3.9 S 20 28 11 15 1018.1 1017.9 0.0
11/09:23am 19.6 16.8 13.3 67 3.6 S 20 28 11 15 1018.0 1017.8 0.0
11/09:00am 19.1 16.3 14.2 73 2.8 SSW 22 28 12 15 1018.0 1017.8 0.0
11/08:56am 18.7 15.4 14.0 74 2.7 SW 24 28 13 15 1018.1 1017.9 0.0
11/08:30am 17.6 15.2 14.3 81 1.9 SW 20 28 11 15 1018.1 1017.9 0.0
11/08:00am 16.6 14.3 14.0 84 1.5 SW 19 24 10 13 1017.7 1017.5 0.0
11/07:30am 15.4 13.4 13.8 90 0.9 SW 17 20 9 11 1017.4 1017.2 0.0
11/07:00am 14.6 12.0 13.3 92 0.7 SW 19 20 10 11 1017.3 1017.1 0.0
11/06:47am 14.5 11.9 13.2 92 0.7 SW 19 20 10 11 1017.1 1016.9 0.0
11/06:30am 14.5 12.3 13.2 92 0.7 SW 17 20 9 11 1016.9 1016.7 0.0
11/06:28am 14.5 12.3 13.2 92 0.7 SW 17 20 9 11 1016.9 1016.7 0.0
11/06:00am 14.7 12.2 13.4 92 0.7 SW 19 22 10 12 1016.6 1016.4 0.0
11/05:30am 14.8 12.1 13.5 92 0.7 SW 20 24 11 13 1016.3 1016.1 0.0
11/05:14am 15.0 12.5 13.6 91 0.8 SW 19 24 10 13 1016.2 1016.0 0.0
11/05:00am 15.0 12.5 13.4 90 0.9 SW 19 24 10 13 1016.1 1015.9 0.0
11/04:57am 15.0 12.3 13.6 91 0.8 SW 20 24 11 13 1016.0 1015.8 0.0
11/04:30am 15.1 12.4 13.5 90 0.9 SW 20 26 11 14 1015.9 1015.7 0.0
11/04:00am 15.3 12.2 13.5 89 1.0 SW 22 26 12 14 1015.9 1015.7 0.0

Latest Capital City Observations: Canberra | Sydney | Melbourne | Brisbane | Adelaide | Perth | Hobart | Darwin

Other Formats:

Comma delimited format used in spreadsheet applications
http://www.bom.gov.au/fwo/IDS60901/IDS60901.95818.axf

JavaScript Object Notation format (JSON) in row-major order
http://www.bom.gov.au/fwo/IDS60901/IDS60901.95818.json